KFOE/FOE METAR and TAF weather

Enter ICAO airport designator
Station Type Date Time Source
KFOE METAR 2020/09/18 22:53 UTC NOAA

KFOE 182253Z 11005KT 10SM CLR 22/13 A3022 RMK AO2 SLP230 T02220128


Station Type Date Time Source
KFOE Decoded METAR 2020/09/18 22:53 UTC NOAA

FORBES FIELD, KS, United States (KFOE) 38-56N 95-39W 320M
Sep 18, 2020 - 06:53 PM EDT / 2020.09.18 2253 UTC
Wind: from the ESE (110 degrees) at 6 MPH (5 KT):0
Visibility: 10 mile(s):0
Sky conditions: clear
Temperature: 72.0 F (22.2 C)
Dew Point: 55.0 F (12.8 C)
Relative Humidity: 55%
Pressure (altimeter): 30.22 in. Hg (1023 hPa)
ob: KFOE 182253Z 11005KT 10SM CLR 22/13 A3022 RMK AO2 SLP230 T02220128
cycle: 23

Station Type Date Time Source
KFOE TAF 2020/09/18 18:24 UTC NOAA

TAF KFOE 181723Z 1818/1918 09007KT P6SM FEW250

Example: see airport list